createdAt,value
2019-05-01T00:01:30.515Z,22.89
2019-05-01T00:03:56.520Z,22.89
2019-05-01T00:06:22.543Z,22.88
2019-05-01T00:08:48.545Z,22.88
2019-05-01T00:11:14.549Z,22.88
2019-05-01T00:13:40.560Z,22.88
2019-05-01T00:16:06.560Z,22.87
2019-05-01T00:18:32.580Z,22.87
2019-05-01T00:20:58.592Z,22.87
2019-05-01T00:23:24.592Z,22.87
2019-05-01T00:25:50.608Z,22.86
2019-05-01T00:28:16.621Z,22.87
2019-05-01T00:30:42.635Z,22.86
2019-05-01T00:33:08.632Z,22.86
2019-05-01T00:35:34.651Z,22.86
2019-05-01T00:38:00.646Z,22.86
2019-05-01T00:40:26.676Z,22.86
2019-05-01T00:42:52.681Z,22.85
2019-05-01T00:45:18.689Z,22.86
2019-05-01T00:47:44.715Z,22.85
2019-05-01T00:50:10.742Z,22.85
2019-05-01T00:52:36.751Z,22.85
2019-05-01T00:55:02.753Z,22.84
2019-05-01T00:57:28.775Z,22.84
2019-05-01T00:59:54.784Z,22.84
2019-05-01T01:02:20.783Z,22.84
2019-05-01T01:04:46.801Z,22.83
2019-05-01T01:07:12.828Z,22.83
2019-05-01T01:09:38.842Z,22.83
2019-05-01T01:12:04.831Z,22.83
2019-05-01T01:14:30.862Z,22.83
2019-05-01T01:16:56.856Z,22.83
2019-05-01T01:19:22.864Z,22.82
2019-05-01T01:21:48.878Z,22.82
2019-05-01T01:24:14.881Z,22.82
2019-05-01T01:26:40.902Z,22.82
2019-05-01T01:29:06.941Z,22.81
2019-05-01T01:31:32.933Z,22.81
2019-05-01T01:33:58.946Z,22.81
2019-05-01T01:36:24.955Z,22.81
2019-05-01T01:38:50.952Z,22.80
2019-05-01T01:41:16.979Z,22.80
2019-05-01T01:43:42.972Z,22.80
2019-05-01T01:46:09.000Z,22.80
2019-05-01T01:48:34.993Z,22.80
2019-05-01T01:51:01.044Z,22.79
2019-05-01T01:53:27.041Z,22.80
2019-05-01T01:55:53.057Z,22.80
2019-05-01T01:58:19.076Z,22.79
2019-05-01T02:00:45.067Z,22.79
2019-05-01T02:03:11.186Z,22.79
2019-05-01T02:05:37.177Z,22.79
2019-05-01T02:08:03.190Z,22.78
2019-05-01T02:10:42.268Z,22.78
2019-05-01T02:12:55.211Z,22.78
2019-05-01T02:15:21.238Z,22.77
2019-05-01T02:17:47.248Z,22.77
2019-05-01T02:20:13.248Z,22.78
2019-05-01T02:22:39.268Z,22.77
2019-05-01T02:25:05.276Z,22.77
2019-05-01T02:27:31.295Z,22.76
2019-05-01T02:29:57.289Z,22.76
2019-05-01T02:32:23.306Z,22.76
2019-05-01T02:34:49.332Z,22.75
2019-05-01T02:37:15.323Z,22.75
2019-05-01T02:39:41.347Z,22.75
2019-05-01T02:42:07.336Z,22.75
2019-05-01T02:44:33.355Z,22.75
2019-05-01T02:46:59.379Z,22.75
2019-05-01T02:49:25.369Z,22.74
2019-05-01T02:51:51.405Z,22.74
2019-05-01T02:54:17.391Z,22.74
2019-05-01T02:56:43.393Z,22.73
2019-05-01T02:59:09.410Z,22.73
2019-05-01T03:01:46.483Z,22.73
2019-05-01T03:04:01.439Z,22.73
2019-05-01T03:06:27.430Z,22.72
2019-05-01T03:08:53.443Z,22.72
2019-05-01T03:11:19.441Z,22.72
2019-05-01T03:13:45.482Z,22.72
2019-05-01T03:16:11.508Z,22.72
2019-05-01T03:18:37.508Z,22.72
2019-05-01T03:21:03.532Z,22.71
2019-05-01T03:23:29.536Z,22.72
2019-05-01T03:25:55.545Z,22.71
2019-05-01T03:28:21.539Z,22.70
2019-05-01T03:30:47.593Z,22.70
2019-05-01T03:33:13.582Z,22.70
2019-05-01T03:35:39.575Z,22.70
2019-05-01T03:38:05.597Z,22.69
2019-05-01T03:40:31.589Z,22.69
2019-05-01T03:42:57.610Z,22.69
2019-05-01T03:45:23.599Z,22.69
2019-05-01T03:47:49.735Z,22.69
2019-05-01T03:50:15.735Z,22.69
2019-05-01T03:52:41.756Z,22.68
2019-05-01T03:55:07.779Z,22.67
2019-05-01T03:57:33.768Z,22.68
2019-05-01T03:59:59.795Z,22.67
2019-05-01T04:02:33.900Z,22.67
2019-05-01T04:04:51.793Z,22.67
2019-05-01T04:07:17.818Z,22.67
2019-05-01T04:09:43.846Z,22.67
2019-05-01T04:12:09.855Z,22.67
2019-05-01T04:14:39.116Z,22.67
2019-05-01T04:17:01.937Z,22.67
2019-05-01T04:19:27.884Z,22.66
2019-05-01T04:21:53.891Z,22.67
2019-05-01T04:24:19.902Z,22.67
2019-05-01T04:26:45.927Z,22.66
2019-05-01T04:29:11.956Z,22.67
2019-05-01T04:31:37.984Z,22.67
2019-05-01T04:34:03.993Z,22.66
2019-05-01T04:36:30.001Z,22.67
2019-05-01T04:38:56.001Z,22.67
2019-05-01T04:41:22.026Z,22.66
2019-05-01T04:43:48.024Z,22.66
2019-05-01T04:46:14.092Z,22.66
2019-05-01T04:48:40.115Z,22.67
2019-05-01T04:51:06.130Z,22.67
2019-05-01T04:53:32.143Z,22.67
2019-05-01T04:55:58.141Z,22.66
2019-05-01T04:58:24.163Z,22.66
2019-05-01T05:00:50.192Z,22.67
2019-05-01T05:03:16.213Z,22.67
2019-05-01T05:05:42.218Z,22.67
2019-05-01T05:08:08.239Z,22.69
2019-05-01T05:10:34.255Z,22.69
2019-05-01T05:13:00.257Z,22.68
2019-05-01T05:15:26.286Z,22.69
2019-05-01T05:17:52.276Z,22.69
2019-05-01T05:20:18.303Z,22.69
2019-05-01T05:22:44.323Z,22.69
2019-05-01T05:25:10.314Z,22.70
2019-05-01T05:27:36.329Z,22.69
2019-05-01T05:30:02.326Z,22.69
2019-05-01T05:32:28.328Z,22.69
2019-05-01T05:34:54.348Z,22.68
2019-05-01T05:37:20.373Z,22.68
2019-05-01T05:39:46.394Z,22.68
2019-05-01T05:42:12.450Z,22.68
2019-05-01T05:44:38.848Z,22.69
2019-05-01T05:47:04.918Z,22.69
2019-05-01T05:49:30.944Z,22.70
2019-05-01T05:51:57.153Z,22.70
2019-05-01T05:54:23.240Z,22.69
2019-05-01T05:56:54.180Z,22.70
2019-05-01T05:59:20.182Z,22.70
2019-05-01T06:01:46.518Z,22.70
2019-05-01T06:06:47.948Z,22.70
2019-05-01T06:09:15.553Z,22.69
2019-05-01T06:11:56.392Z,22.69
2019-05-01T06:14:22.437Z,22.70
2019-05-01T06:16:52.235Z,22.66
2019-05-01T06:19:16.204Z,22.70
2019-05-01T06:21:40.523Z,22.70
2019-05-01T06:24:07.015Z,22.71
2019-05-01T06:26:37.277Z,22.72
2019-05-01T06:29:00.684Z,22.73
2019-05-01T06:31:25.355Z,22.73
2019-05-01T06:34:00.761Z,22.74
2019-05-01T06:36:26.795Z,22.75
2019-05-01T06:38:52.783Z,22.75
2019-05-01T06:41:18.782Z,22.76
2019-05-01T06:43:44.803Z,22.76
2019-05-01T06:46:10.823Z,22.77
2019-05-01T06:48:36.813Z,22.76
2019-05-01T06:51:02.840Z,22.76
2019-05-01T06:53:28.940Z,22.75
2019-05-01T06:55:55.077Z,22.75
2019-05-01T06:58:21.855Z,22.75
2019-05-01T07:00:47.248Z,22.74
2019-05-01T07:03:13.274Z,22.74
2019-05-01T07:05:39.299Z,22.74
2019-05-01T07:08:05.325Z,22.73
2019-05-01T07:10:43.203Z,22.73
2019-05-01T07:12:59.917Z,22.72
2019-05-01T07:15:26.814Z,22.72
2019-05-01T07:17:50.099Z,22.71
2019-05-01T07:20:16.689Z,22.71
2019-05-01T07:22:42.556Z,22.70
2019-05-01T07:25:10.578Z,22.70
2019-05-01T07:27:39.036Z,22.70
2019-05-01T07:30:08.028Z,22.70
2019-05-01T07:32:36.389Z,22.70
2019-05-01T07:35:02.093Z,22.69
2019-05-01T07:37:27.741Z,22.69
2019-05-01T07:39:52.262Z,22.69
2019-05-01T07:42:18.243Z,22.68
2019-05-01T07:44:44.287Z,22.69
2019-05-01T07:47:10.280Z,22.69
2019-05-01T07:49:36.309Z,22.68
2019-05-01T07:52:02.332Z,22.68
2019-05-01T07:54:28.331Z,22.68
2019-05-01T07:56:54.394Z,22.68
2019-05-01T07:59:22.901Z,22.68
2019-05-01T08:01:49.883Z,22.68
2019-05-01T08:04:13.785Z,22.68
2019-05-01T08:06:38.467Z,22.68
2019-05-01T08:09:04.491Z,22.67
2019-05-01T08:11:30.513Z,22.68
2019-05-01T08:14:07.029Z,22.68
2019-05-01T08:16:22.669Z,22.68
2019-05-01T08:18:48.672Z,22.68
2019-05-01T08:21:14.697Z,22.68
2019-05-01T08:23:42.666Z,22.68
2019-05-01T08:26:08.771Z,22.68
2019-05-01T08:28:33.335Z,22.68
2019-05-01T08:30:58.731Z,22.68
2019-05-01T08:33:24.755Z,22.68
2019-05-01T08:35:50.753Z,22.68
2019-05-01T08:38:16.788Z,22.69
2019-05-01T08:40:42.778Z,22.69
2019-05-01T08:43:08.804Z,22.68
2019-05-01T08:45:35.802Z,22.69
2019-05-01T08:48:01.513Z,22.69
2019-05-01T08:50:27.066Z,22.68
2019-05-01T08:52:53.086Z,22.68
2019-05-01T08:55:19.114Z,22.67
2019-05-01T08:57:45.105Z,22.67
2019-05-01T09:00:11.137Z,22.66
2019-05-01T09:02:41.470Z,22.66
2019-05-01T09:05:07.242Z,22.66
2019-05-01T09:07:29.380Z,22.65
2019-05-01T09:09:55.350Z,22.65
2019-05-01T09:12:21.379Z,22.65
2019-05-01T09:14:47.393Z,22.64
2019-05-01T09:17:13.428Z,22.64
2019-05-01T09:19:39.446Z,22.65
2019-05-01T09:22:05.471Z,22.65
2019-05-01T09:24:31.481Z,22.65
2019-05-01T09:26:57.481Z,22.65
2019-05-01T09:29:23.479Z,22.65
2019-05-01T09:31:49.499Z,22.65
2019-05-01T09:34:19.105Z,22.65
2019-05-01T09:36:41.651Z,22.64
2019-05-01T09:39:07.640Z,22.64
2019-05-01T09:41:38.525Z,22.64
2019-05-01T09:43:59.660Z,22.63
2019-05-01T09:46:25.677Z,22.63
2019-05-01T09:48:51.748Z,22.63
2019-05-01T09:51:17.757Z,22.63
2019-05-01T09:53:43.786Z,22.63
2019-05-01T09:56:09.849Z,22.64
2019-05-01T09:58:35.886Z,22.64
2019-05-01T10:01:01.933Z,22.64
2019-05-01T10:03:27.947Z,22.63
2019-05-01T10:05:53.943Z,22.64
2019-05-01T10:08:20.047Z,22.64
2019-05-01T10:10:46.096Z,22.64
2019-05-01T10:13:12.377Z,22.64
2019-05-01T10:15:38.435Z,22.64
2019-05-01T10:18:04.443Z,22.65
2019-05-01T10:20:31.274Z,22.65
2019-05-01T10:22:57.280Z,22.64
2019-05-01T10:25:23.323Z,22.65
2019-05-01T10:27:49.353Z,22.65
2019-05-01T10:30:15.352Z,22.65
2019-05-01T10:32:41.399Z,22.65
2019-05-01T10:35:07.399Z,22.65
2019-05-01T10:37:35.328Z,22.65
2019-05-01T10:39:59.426Z,22.64
2019-05-01T10:42:25.420Z,22.64
2019-05-01T10:44:51.444Z,22.64
2019-05-01T10:47:17.462Z,22.64
2019-05-01T10:49:43.464Z,22.64
2019-05-01T10:52:14.210Z,22.64
2019-05-01T10:54:35.550Z,22.63
2019-05-01T10:57:03.376Z,22.64
2019-05-01T10:59:27.603Z,22.65
2019-05-01T11:01:53.735Z,22.62
2019-05-01T11:04:19.726Z,22.65
2019-05-01T11:06:45.741Z,22.65
2019-05-01T11:09:11.760Z,22.65
2019-05-01T11:11:37.763Z,22.65
2019-05-01T11:14:03.999Z,22.65
2019-05-01T11:16:30.012Z,22.65
2019-05-01T11:18:56.030Z,22.65
2019-05-01T11:21:22.044Z,22.66
2019-05-01T11:23:48.064Z,22.65
2019-05-01T11:26:14.081Z,22.66
2019-05-01T11:28:40.076Z,22.67
2019-05-01T11:31:06.104Z,22.66
2019-05-01T11:33:32.118Z,22.67
2019-05-01T11:36:08.887Z,22.67
2019-05-01T11:38:24.392Z,22.67
2019-05-01T11:40:50.429Z,22.67
2019-05-01T11:43:16.431Z,22.67
2019-05-01T11:45:42.430Z,22.67
2019-05-01T11:48:08.450Z,22.67
2019-05-01T11:50:34.456Z,22.68
2019-05-01T11:53:00.470Z,22.68
2019-05-01T11:55:26.499Z,22.67
2019-05-01T11:57:52.504Z,22.67
2019-05-01T12:00:18.541Z,22.66
2019-05-01T12:02:44.544Z,22.67
2019-05-01T12:05:10.555Z,22.67
2019-05-01T12:07:36.605Z,22.67
2019-05-01T12:10:02.603Z,22.67
2019-05-01T12:12:28.627Z,22.67
2019-05-01T12:14:54.617Z,22.66
2019-05-01T12:17:20.670Z,22.67
2019-05-01T12:19:46.678Z,22.66
2019-05-01T12:22:12.769Z,22.66
2019-05-01T12:24:38.792Z,22.66
2019-05-01T12:27:04.815Z,22.65
2019-05-01T12:29:30.837Z,22.65
2019-05-01T12:31:56.836Z,22.64
2019-05-01T12:34:22.953Z,22.64
2019-05-01T12:36:48.976Z,22.63
2019-05-01T12:39:15.011Z,22.63
2019-05-01T12:41:41.084Z,22.63
2019-05-01T12:44:07.093Z,22.62
2019-05-01T12:46:33.101Z,22.61
2019-05-01T12:48:59.125Z,22.62
2019-05-01T12:51:25.161Z,22.62
2019-05-01T12:53:51.184Z,22.61
2019-05-01T12:56:17.185Z,22.60
2019-05-01T12:58:43.207Z,22.60
2019-05-01T13:01:09.228Z,22.60
2019-05-01T13:03:35.228Z,22.59
2019-05-01T13:06:01.293Z,22.60
2019-05-01T13:08:28.569Z,22.60
2019-05-01T13:10:53.383Z,22.59
2019-05-01T13:13:19.520Z,22.59
2019-05-01T13:15:45.558Z,22.59
2019-05-01T13:18:11.573Z,22.58
2019-05-01T13:20:37.566Z,22.58
2019-05-01T13:23:03.624Z,22.58
2019-05-01T13:25:29.658Z,22.57
2019-05-01T13:27:55.723Z,22.57
2019-05-01T13:30:21.700Z,22.57
2019-05-01T13:32:47.700Z,22.57
2019-05-01T13:35:13.749Z,22.56
2019-05-01T13:37:39.749Z,22.56
2019-05-01T13:40:05.794Z,22.56
2019-05-01T13:42:31.811Z,22.55
2019-05-01T13:44:57.811Z,22.56
2019-05-01T13:47:23.842Z,22.55
2019-05-01T13:49:49.841Z,22.55
2019-05-01T13:52:15.876Z,22.55
2019-05-01T13:54:41.888Z,22.55
2019-05-01T13:57:07.936Z,22.55
2019-05-01T13:59:33.930Z,22.55
2019-05-01T14:01:59.975Z,22.54
2019-05-01T14:04:25.994Z,22.53
2019-05-01T14:06:51.988Z,22.53
2019-05-01T14:09:18.005Z,22.52
2019-05-01T14:11:44.159Z,22.52
2019-05-01T14:14:10.185Z,22.53
2019-05-01T14:16:36.174Z,22.53
2019-05-01T14:19:02.298Z,22.53
2019-05-01T14:21:28.394Z,22.53
2019-05-01T14:23:54.417Z,22.54
2019-05-01T14:26:20.453Z,22.53
2019-05-01T14:28:46.451Z,22.53
2019-05-01T14:31:12.457Z,22.52
2019-05-01T14:33:38.476Z,22.52
2019-05-01T14:36:04.498Z,22.52
2019-05-01T14:38:30.642Z,22.51
2019-05-01T14:40:56.753Z,22.50
2019-05-01T14:43:22.759Z,22.51
2019-05-01T14:45:48.945Z,22.51
2019-05-01T14:48:14.945Z,22.52
2019-05-01T14:50:40.995Z,22.52
2019-05-01T14:53:06.965Z,22.52
2019-05-01T14:55:32.976Z,22.51
2019-05-01T14:57:59.015Z,22.51
2019-05-01T15:00:25.023Z,22.51
2019-05-01T15:02:51.038Z,22.50
2019-05-01T15:05:17.046Z,22.50
2019-05-01T15:07:44.101Z,22.50
2019-05-01T15:10:09.059Z,22.50
2019-05-01T15:12:35.089Z,22.50
2019-05-01T15:15:01.102Z,22.49
2019-05-01T15:17:27.125Z,22.49
2019-05-01T15:19:53.153Z,22.49
2019-05-01T15:22:19.157Z,22.48
2019-05-01T15:24:45.175Z,22.47
2019-05-01T15:27:11.172Z,22.47
2019-05-01T15:29:37.238Z,22.47
2019-05-01T15:32:03.218Z,22.46
2019-05-01T15:34:29.262Z,22.46
2019-05-01T15:36:55.263Z,22.46
2019-05-01T15:39:21.258Z,22.46
2019-05-01T15:41:47.297Z,22.45
2019-05-01T15:44:13.304Z,22.45
2019-05-01T15:46:39.320Z,22.45
2019-05-01T15:49:05.373Z,22.45
2019-05-01T15:51:31.395Z,22.46
2019-05-01T15:53:57.411Z,22.47
2019-05-01T15:56:23.407Z,22.49
2019-05-01T15:58:49.413Z,22.52
2019-05-01T16:01:15.485Z,22.51
2019-05-01T16:03:41.483Z,22.50
2019-05-01T16:06:08.411Z,22.53
2019-05-01T16:08:33.501Z,22.54
2019-05-01T16:10:59.525Z,22.54
2019-05-01T16:13:25.521Z,22.54
2019-05-01T16:15:51.545Z,22.56
2019-05-01T16:18:17.590Z,22.56
2019-05-01T16:20:43.589Z,22.54
2019-05-01T16:23:09.604Z,22.55
2019-05-01T16:25:35.607Z,22.56
2019-05-01T16:28:01.651Z,22.52
2019-05-01T16:30:27.658Z,22.52
2019-05-01T16:32:53.696Z,22.51
2019-05-01T16:35:19.683Z,22.50
2019-05-01T16:37:45.681Z,22.49
2019-05-01T16:40:11.788Z,22.49
2019-05-01T16:42:37.787Z,22.51
2019-05-01T16:45:03.804Z,22.50
2019-05-01T16:47:29.865Z,22.50
2019-05-01T16:49:55.882Z,22.49
2019-05-01T16:52:21.892Z,22.49
2019-05-01T16:54:58.752Z,22.48
2019-05-01T16:57:13.956Z,22.48
2019-05-01T16:59:44.201Z,22.47
2019-05-01T17:02:10.773Z,22.47
2019-05-01T17:04:36.774Z,22.46
2019-05-01T17:07:02.773Z,22.46
2019-05-01T17:09:28.800Z,22.45
2019-05-01T17:11:54.803Z,22.44
2019-05-01T17:14:20.816Z,22.44
2019-05-01T17:16:46.829Z,22.44
2019-05-01T17:19:12.832Z,22.43
2019-05-01T17:21:38.901Z,22.43
2019-05-01T17:24:04.903Z,22.43
2019-05-01T17:26:30.931Z,22.44
2019-05-01T17:28:56.940Z,22.43
2019-05-01T17:31:22.963Z,22.43
2019-05-01T17:33:50.889Z,22.43
2019-05-01T17:36:14.988Z,22.43
2019-05-01T17:38:49.208Z,22.43
2019-05-01T17:41:07.021Z,22.43
2019-05-01T17:43:33.046Z,22.44
2019-05-01T17:45:59.075Z,22.44
2019-05-01T17:48:28.849Z,22.43
2019-05-01T17:50:55.003Z,22.45
2019-05-01T17:53:17.429Z,22.45
2019-05-01T17:55:44.732Z,22.44
2019-05-01T17:58:09.479Z,22.45
2019-05-01T18:00:35.477Z,22.45
2019-05-01T18:03:01.527Z,22.44
2019-05-01T18:05:27.530Z,22.45
2019-05-01T18:07:53.568Z,22.44
2019-05-01T18:10:19.561Z,22.44
2019-05-01T18:12:45.600Z,22.45
2019-05-01T18:15:11.614Z,22.45
2019-05-01T18:17:37.667Z,22.44
2019-05-01T18:20:03.707Z,22.44
2019-05-01T18:22:32.115Z,22.45
2019-05-01T18:24:58.466Z,22.44
2019-05-01T18:27:21.745Z,22.44
2019-05-01T18:29:49.662Z,22.44
2019-05-01T18:32:18.407Z,22.45
2019-05-01T18:34:44.434Z,22.46
2019-05-01T18:37:10.440Z,22.47
2019-05-01T18:39:36.466Z,22.47
2019-05-01T18:42:02.486Z,22.46
2019-05-01T18:44:28.518Z,22.46
2019-05-01T18:46:54.546Z,22.47
2019-05-01T18:49:21.775Z,22.45
2019-05-01T18:51:46.581Z,22.45
2019-05-01T18:54:18.058Z,22.45
2019-05-01T18:56:44.119Z,22.44
2019-05-01T18:59:10.114Z,22.44
2019-05-01T19:01:36.130Z,22.46
2019-05-01T19:04:02.142Z,22.45
2019-05-01T19:06:40.608Z,22.45
2019-05-01T19:08:55.861Z,22.45
2019-05-01T19:11:21.900Z,22.46
2019-05-01T19:13:47.912Z,22.46
2019-05-01T19:16:13.920Z,22.45
2019-05-01T19:18:39.922Z,22.45
2019-05-01T19:21:05.927Z,22.45
2019-05-01T19:23:35.727Z,22.45
2019-05-01T19:28:37.285Z,22.45
2019-05-01T19:31:03.312Z,22.45
2019-05-01T19:33:29.308Z,22.46
2019-05-01T19:35:55.321Z,22.46
2019-05-01T19:38:21.346Z,22.47
2019-05-01T19:40:47.430Z,22.48
2019-05-01T19:43:13.463Z,22.48
2019-05-01T19:45:39.517Z,22.49
2019-05-01T19:48:05.493Z,22.48
2019-05-01T19:50:31.521Z,22.48
2019-05-01T19:52:58.153Z,22.48
2019-05-01T19:55:24.115Z,22.48
2019-05-01T19:57:54.406Z,22.48
2019-05-01T20:00:20.387Z,22.48
2019-05-01T20:02:46.443Z,22.48
2019-05-01T20:05:12.453Z,22.48
2019-05-01T20:07:38.479Z,22.49
2019-05-01T20:10:04.471Z,22.48
2019-05-01T20:12:30.490Z,22.48
2019-05-01T20:14:56.509Z,22.49
2019-05-01T20:17:23.986Z,22.48
2019-05-01T20:19:50.037Z,22.48
2019-05-01T20:22:16.073Z,22.47
2019-05-01T20:24:44.244Z,22.46
2019-05-01T20:27:08.091Z,22.46
2019-05-01T20:29:34.117Z,22.45
2019-05-01T20:32:00.118Z,22.45
2019-05-01T20:34:26.129Z,22.45
2019-05-01T20:36:52.147Z,22.45
2019-05-01T20:39:18.152Z,22.44
2019-05-01T20:41:44.171Z,22.43
2019-05-01T20:44:10.200Z,22.43
2019-05-01T20:46:36.314Z,22.43
2019-05-01T20:49:06.301Z,22.43
2019-05-01T20:51:28.335Z,22.43
2019-05-01T20:53:54.357Z,22.41
2019-05-01T20:56:20.384Z,22.42
2019-05-01T20:58:46.392Z,22.41
2019-05-01T21:01:12.400Z,22.41
2019-05-01T21:03:38.403Z,22.40
2019-05-01T21:06:07.916Z,22.40
2019-05-01T21:08:34.287Z,22.40
2019-05-01T21:10:56.489Z,22.39
2019-05-01T21:13:23.470Z,22.39
2019-05-01T21:15:48.555Z,22.39
2019-05-01T21:18:14.577Z,22.38
2019-05-01T21:20:40.566Z,22.37
2019-05-01T21:23:10.656Z,22.37
2019-05-01T21:25:32.592Z,22.37
2019-05-01T21:27:58.742Z,22.38
2019-05-01T21:30:24.741Z,22.37
2019-05-01T21:32:50.749Z,22.37
2019-05-01T21:35:16.848Z,22.36
2019-05-01T21:37:42.851Z,22.36
2019-05-01T21:40:08.864Z,22.35
2019-05-01T21:42:34.859Z,22.35
2019-05-01T21:45:00.879Z,22.35
2019-05-01T21:47:26.880Z,22.34
2019-05-01T21:49:53.054Z,22.35
2019-05-01T21:52:23.076Z,22.34
2019-05-01T21:54:44.927Z,22.34
2019-05-01T21:57:12.066Z,22.33
2019-05-01T21:59:39.772Z,22.33
2019-05-01T22:02:05.492Z,22.33
2019-05-01T22:04:32.001Z,22.33
2019-05-01T22:06:55.063Z,22.32
2019-05-01T22:09:21.061Z,22.32
2019-05-01T22:11:47.069Z,22.32
2019-05-01T22:14:13.089Z,22.32
2019-05-01T22:16:39.092Z,22.31
2019-05-01T22:19:05.106Z,22.31
2019-05-01T22:21:31.148Z,22.31
2019-05-01T22:23:57.142Z,22.31
2019-05-01T22:26:23.167Z,22.30
2019-05-01T22:28:50.121Z,22.30
2019-05-01T22:31:16.815Z,22.30
2019-05-01T22:33:41.182Z,22.30
2019-05-01T22:36:07.176Z,22.29
2019-05-01T22:38:33.189Z,22.29
2019-05-01T22:41:06.020Z,22.29
2019-05-01T22:43:25.211Z,22.29
2019-05-01T22:45:51.213Z,22.28
2019-05-01T22:48:17.237Z,22.29
2019-05-01T22:50:43.250Z,22.28
2019-05-01T22:53:12.982Z,22.28
2019-05-01T22:55:35.264Z,22.28
2019-05-01T22:58:01.263Z,22.28
2019-05-01T23:00:27.264Z,22.28
2019-05-01T23:02:53.309Z,22.27
2019-05-01T23:05:23.071Z,22.27
2019-05-01T23:07:45.330Z,22.26
2019-05-01T23:10:11.347Z,22.27
2019-05-01T23:12:37.350Z,22.26
2019-05-01T23:15:03.360Z,22.26
2019-05-01T23:17:29.395Z,22.26
2019-05-01T23:19:58.952Z,22.25
2019-05-01T23:22:21.407Z,22.25
2019-05-01T23:24:47.459Z,22.25
2019-05-01T23:27:13.430Z,22.25
2019-05-01T23:29:39.436Z,22.25
2019-05-01T23:32:05.469Z,22.25
2019-05-01T23:34:31.466Z,22.25
2019-05-01T23:36:57.522Z,22.24
2019-05-01T23:39:23.558Z,22.23
2019-05-01T23:41:49.550Z,22.24
2019-05-01T23:44:15.563Z,22.23
2019-05-01T23:46:41.567Z,22.23
2019-05-01T23:49:07.563Z,22.23
2019-05-01T23:51:33.578Z,22.23
2019-05-01T23:53:59.691Z,22.23
2019-05-01T23:56:25.741Z,22.22
2019-05-01T23:58:51.736Z,22.23
